Time;durP1;ratioP1;P1;durP2;ratioP2;P2;SDS_P1;SDS_P2;PMS_P1;PMS_P2;Temp;Humidity;BMP_temperature;BMP_pressure;BME280_temperature;BME280_humidity;BME280_pressure;Samples;Min_cycle;Max_cycle;Signal;HPM_P1;HPM_P2
2021/08/29 00:01:56;;;;;;;12.93;11.57;;;16.40;99.90;;;;;;5092311;28;20376;-80
2021/08/29 00:04:22;;;;;;;15.18;12.80;;;16.40;99.90;;;;;;5092504;28;20372;-82
2021/08/29 00:06:48;;;;;;;13.57;11.70;;;16.40;99.90;;;;;;5092426;28;20870;-78
2021/08/29 00:09:13;;;;;;;13.73;11.77;;;16.40;99.90;;;;;;5092479;28;20368;-80
2021/08/29 00:11:39;;;;;;;15.20;12.47;;;16.40;99.90;;;;;;5073996;28;20380;-81
2021/08/29 00:14:04;;;;;;;15.40;13.60;;;16.40;99.90;;;;;;5092267;28;20384;-81
2021/08/29 00:16:30;;;;;;;14.07;12.67;;;16.40;99.90;;;;;;5091973;28;20726;-81
2021/08/29 00:18:56;;;;;;;15.32;12.70;;;16.40;99.90;;;;;;5090861;28;20422;-81
2021/08/29 00:21:21;;;;;;;15.20;13.37;;;16.30;99.90;;;;;;5093009;28;20404;-81
2021/08/29 00:23:47;;;;;;;14.50;13.00;;;16.40;99.90;;;;;;5092028;28;20422;-79
2021/08/29 00:26:13;;;;;;;14.67;13.17;;;16.40;99.90;;;;;;5091786;28;20871;-82
2021/08/29 00:28:38;;;;;;;14.03;12.63;;;16.40;99.90;;;;;;5091462;28;20372;-83
2021/08/29 00:31:04;;;;;;;14.52;13.02;;;16.50;99.90;;;;;;5092043;28;20975;-80
2021/08/29 00:33:30;;;;;;;14.83;13.33;;;16.40;99.90;;;;;;5073756;28;20368;-79
2021/08/29 00:35:56;;;;;;;13.73;12.32;;;16.40;99.90;;;;;;5091828;28;20409;-80
2021/08/29 00:38:22;;;;;;;15.77;13.40;;;16.40;99.90;;;;;;5091717;28;20392;-83
2021/08/29 00:40:49;;;;;;;15.10;13.57;;;16.40;99.90;;;;;;5091672;28;20491;-81
2021/08/29 00:43:15;;;;;;;14.60;13.10;;;16.40;99.90;;;;;;5091658;28;20391;-82
2021/08/29 00:45:41;;;;;;;14.38;12.85;;;16.40;99.90;;;;;;5091893;28;20368;-79
2021/08/29 00:48:10;;;;;;;16.67;13.25;;;16.40;99.90;;;;;;5091569;28;20365;-82
2021/08/29 00:50:40;;;;;;;13.68;12.38;;;16.40;99.90;;;;;;5091561;28;20384;-79
2021/08/29 00:53:06;;;;;;;14.02;12.63;;;16.40;99.90;;;;;;5091540;28;20429;-80
2021/08/29 00:55:33;;;;;;;14.88;13.38;;;16.50;99.90;;;;;;5091728;28;20897;-80
2021/08/29 00:57:58;;;;;;;15.70;14.07;;;16.50;99.90;;;;;;5091603;28;20369;-79
2021/08/29 01:00:25;;;;;;;13.50;12.20;;;16.40;99.90;;;;;;5072009;28;20403;-78
2021/08/29 01:02:51;;;;;;;15.55;12.75;;;16.40;99.90;;;;;;5073155;28;20389;-78
2021/08/29 01:05:20;;;;;;;14.32;12.82;;;16.40;99.90;;;;;;5091085;28;20387;-79
2021/08/29 01:07:53;;;;;;;13.02;11.73;;;16.40;99.90;;;;;;5091402;28;20373;-78
2021/08/29 01:10:26;;;;;;;12.75;11.48;;;16.40;99.90;;;;;;5091040;28;20380;-81
2021/08/29 01:12:55;;;;;;;12.75;11.52;;;16.40;99.90;;;;;;5091204;28;20758;-80
2021/08/29 01:15:23;;;;;;;14.52;12.65;;;16.40;99.90;;;;;;5072638;28;20417;-82
2021/08/29 01:17:50;;;;;;;13.20;11.90;;;16.40;99.90;;;;;;5072935;28;20376;-79
2021/08/29 01:20:25;;;;;;;13.07;11.77;;;16.40;99.90;;;;;;5090760;28;20397;-82
2021/08/29 01:22:51;;;;;;;12.80;11.60;;;16.40;99.90;;;;;;5090648;28;20368;-80
2021/08/29 01:25:25;;;;;;;13.65;12.25;;;16.30;99.90;;;;;;5090990;28;20372;-81
2021/08/29 01:27:57;;;;;;;13.13;11.82;;;16.30;99.90;;;;;;5090849;28;20376;-79
2021/08/29 01:30:24;;;;;;;11.30;10.20;;;16.30;99.90;;;;;;5072872;28;20392;-79
2021/08/29 01:32:51;;;;;;;11.38;10.27;;;16.30;99.90;;;;;;5090921;28;20369;-78
2021/08/29 01:35:17;;;;;;;11.23;10.10;;;16.40;99.90;;;;;;5090631;28;20385;-80
2021/08/29 01:37:43;;;;;;;10.48;9.57;;;16.30;99.90;;;;;;5090996;28;20441;-78
2021/08/29 01:40:10;;;;;;;9.60;8.70;;;16.30;99.90;;;;;;5090745;28;20400;-81
2021/08/29 01:42:36;;;;;;;10.38;9.35;;;16.30;99.90;;;;;;5092080;28;20368;-79
2021/08/29 01:45:03;;;;;;;9.80;8.82;;;16.30;99.90;;;;;;5093569;28;20364;-81
2021/08/29 01:47:29;;;;;;;9.60;8.70;;;16.20;99.90;;;;;;5090460;28;20799;-78
2021/08/29 01:49:55;;;;;;;8.57;7.60;;;16.20;99.90;;;;;;5091150;28;20368;-79
2021/08/29 01:52:21;;;;;;;8.85;8.00;;;16.20;99.90;;;;;;5090676;28;20361;-82
2021/08/29 01:54:46;;;;;;;8.40;7.53;;;16.20;99.90;;;;;;5090686;28;20772;-79
2021/08/29 01:57:13;;;;;;;8.32;7.55;;;16.20;99.90;;;;;;5090534;28;20368;-78
2021/08/29 01:59:43;;;;;;;7.70;6.43;;;16.30;99.90;;;;;;5071835;28;20427;-77
2021/08/29 02:02:10;;;;;;;7.27;6.37;;;16.30;99.90;;;;;;5090428;28;20889;-79
2021/08/29 02:04:37;;;;;;;6.85;5.88;;;16.20;99.90;;;;;;5072165;28;20896;-77
2021/08/29 02:07:02;;;;;;;7.07;6.47;;;16.20;99.90;;;;;;5090543;28;20489;-77
2021/08/29 02:09:30;;;;;;;6.32;5.68;;;16.20;99.90;;;;;;5071965;28;20477;-80
2021/08/29 02:11:56;;;;;;;6.45;5.70;;;16.20;99.90;;;;;;5090120;28;20364;-79
2021/08/29 02:14:27;;;;;;;8.75;6.57;;;16.20;99.90;;;;;;5090259;28;20357;-81
2021/08/29 02:16:53;;;;;;;7.15;6.53;;;16.10;99.90;;;;;;5071538;28;20389;-82
2021/08/29 02:19:32;;;;;;;7.13;6.45;;;16.10;99.90;;;;;;5089400;28;20804;-78
2021/08/29 02:21:59;;;;;;;7.28;6.40;;;16.10;99.90;;;;;;5090035;28;20463;-81
2021/08/29 02:24:27;;;;;;;6.70;6.10;;;16.10;99.90;;;;;;5089613;28;20372;-78
2021/08/29 02:26:55;;;;;;;9.07;6.63;;;16.20;99.90;;;;;;5089641;28;20368;-79
2021/08/29 02:29:20;;;;;;;7.93;6.57;;;16.20;99.90;;;;;;5089532;28;20384;-80
2021/08/29 02:31:49;;;;;;;6.72;6.05;;;16.10;99.90;;;;;;5089703;28;20391;-80
2021/08/29 02:34:14;;;;;;;7.35;6.65;;;16.20;99.90;;;;;;5089807;28;20368;-80
2021/08/29 02:36:41;;;;;;;7.10;6.38;;;16.20;99.90;;;;;;5089359;28;20375;-79
2021/08/29 02:39:08;;;;;;;8.25;7.00;;;16.20;99.90;;;;;;5089354;28;20541;-78
2021/08/29 02:41:36;;;;;;;8.40;7.60;;;16.20;99.90;;;;;;5089849;28;20401;-80
2021/08/29 02:44:04;;;;;;;7.72;7.03;;;16.20;99.90;;;;;;5089693;28;20380;-79
2021/08/29 02:46:29;;;;;;;9.85;8.68;;;16.20;99.90;;;;;;5089575;28;20386;-82
2021/08/29 02:48:55;;;;;;;9.43;8.50;;;16.10;99.90;;;;;;5089296;28;20372;-79
2021/08/29 02:51:23;;;;;;;10.68;8.80;;;16.10;99.90;;;;;;5089380;28;20372;-80
2021/08/29 02:53:49;;;;;;;10.27;8.98;;;16.10;99.90;;;;;;5089326;28;20467;-78
2021/08/29 02:56:18;;;;;;;11.30;10.10;;;16.10;99.90;;;;;;5089526;28;20460;-77
2021/08/29 02:58:45;;;;;;;10.10;8.95;;;16.00;99.90;;;;;;5071271;28;20914;-78
2021/08/29 03:01:11;;;;;;;11.03;9.70;;;16.00;99.90;;;;;;5071013;28;20400;-80
2021/08/29 03:03:37;;;;;;;11.17;10.00;;;16.00;99.90;;;;;;5089154;28;20420;-79
2021/08/29 03:06:03;;;;;;;11.93;9.65;;;16.00;99.90;;;;;;5070996;28;20368;-80
2021/08/29 03:08:29;;;;;;;10.68;9.05;;;16.10;99.90;;;;;;5089457;28;20404;-78
2021/08/29 03:10:54;;;;;;;10.53;9.43;;;16.10;99.90;;;;;;5089042;28;20402;-80
2021/08/29 03:13:21;;;;;;;9.43;8.40;;;16.10;99.90;;;;;;5089124;28;20891;-80
2021/08/29 03:15:47;;;;;;;9.30;8.40;;;16.10;99.90;;;;;;5088967;28;20372;-81
2021/08/29 03:18:13;;;;;;;8.70;7.90;;;16.10;99.90;;;;;;5088847;28;20464;-79
2021/08/29 03:20:40;;;;;;;9.60;8.70;;;16.10;99.90;;;;;;5070431;28;20788;-82
2021/08/29 03:23:06;;;;;;;9.77;8.13;;;16.10;99.90;;;;;;5088823;28;20369;-80
2021/08/29 03:25:31;;;;;;;9.05;8.00;;;16.10;99.90;;;;;;5088873;28;20897;-78
2021/08/29 03:27:57;;;;;;;8.50;7.70;;;16.10;99.90;;;;;;5088760;28;20377;-82
2021/08/29 03:30:23;;;;;;;8.00;7.20;;;16.00;99.90;;;;;;5088547;28;20380;-80
2021/08/29 03:32:48;;;;;;;8.13;7.18;;;16.00;99.90;;;;;;5088937;28;20738;-80
2021/08/29 03:35:14;;;;;;;10.77;7.43;;;15.90;99.90;;;;;;5088740;28;20425;-79
2021/08/29 03:37:41;;;;;;;8.20;7.40;;;15.90;99.90;;;;;;5088656;28;20376;-81
2021/08/29 03:40:07;;;;;;;8.75;7.38;;;15.90;99.90;;;;;;5088395;28;20874;-79
2021/08/29 03:42:34;;;;;;;12.60;7.80;;;15.80;99.90;;;;;;5088524;28;20404;-77
2021/08/29 03:45:01;;;;;;;10.38;7.50;;;15.70;99.90;;;;;;5088463;28;20357;-79
2021/08/29 03:47:27;;;;;;;9.13;7.70;;;15.80;99.90;;;;;;5088655;28;20935;-82
2021/08/29 03:49:53;;;;;;;10.90;7.45;;;15.70;99.90;;;;;;5088293;28;20369;-78
2021/08/29 03:52:20;;;;;;;10.18;7.55;;;15.80;99.90;;;;;;5088692;28;20381;-80
2021/08/29 03:54:47;;;;;;;8.63;7.05;;;15.70;99.90;;;;;;5070317;28;20380;-80
2021/08/29 03:57:13;;;;;;;8.23;7.43;;;15.70;99.90;;;;;;5088616;28;21131;-80
2021/08/29 03:59:40;;;;;;;7.45;6.65;;;15.80;99.90;;;;;;5070345;28;20405;-79
2021/08/29 04:02:06;;;;;;;8.50;7.65;;;15.70;99.90;;;;;;5088761;28;20882;-79
2021/08/29 04:04:33;;;;;;;10.25;8.30;;;15.80;99.90;;;;;;5088536;28;20377;-80
2021/08/29 04:07:01;;;;;;;8.68;7.22;;;15.70;99.90;;;;;;5088691;28;20596;-79
2021/08/29 04:09:30;;;;;;;8.60;7.63;;;15.70;99.90;;;;;;5088532;28;20370;-80
2021/08/29 04:11:56;;;;;;;7.63;6.93;;;15.70;99.90;;;;;;5088675;28;21148;-78
2021/08/29 04:14:22;;;;;;;9.05;6.90;;;15.80;99.90;;;;;;5088396;28;20408;-81
2021/08/29 04:16:50;;;;;;;9.30;7.57;;;15.80;99.90;;;;;;5088429;28;20772;-80
2021/08/29 04:19:16;;;;;;;8.53;7.50;;;15.80;99.90;;;;;;5088150;28;20400;-81
2021/08/29 04:21:42;;;;;;;8.30;7.50;;;15.90;99.90;;;;;;5088352;28;20395;-80
2021/08/29 04:24:08;;;;;;;8.70;7.80;;;15.90;99.90;;;;;;5088176;28;20862;-80
2021/08/29 04:26:33;;;;;;;9.48;8.57;;;15.90;99.90;;;;;;5088479;28;20372;-80
2021/08/29 04:28:59;;;;;;;9.25;8.35;;;15.90;99.90;;;;;;5088250;28;20463;-81
2021/08/29 04:31:31;;;;;;;9.07;7.72;;;16.00;99.90;;;;;;5088447;28;20426;-79
2021/08/29 04:34:01;;;;;;;9.32;8.32;;;16.00;99.90;;;;;;5088574;28;20381;-79
2021/08/29 04:36:28;;;;;;;10.60;8.57;;;16.00;99.90;;;;;;5091726;28;20449;-80
2021/08/29 04:38:54;;;;;;;9.80;8.77;;;16.00;99.90;;;;;;5091752;28;20414;-80
2021/08/29 04:41:21;;;;;;;12.10;8.50;;;16.00;99.90;;;;;;5073798;28;20885;-79
2021/08/29 04:43:46;;;;;;;9.32;8.43;;;16.00;99.90;;;;;;5091648;28;20372;-80
2021/08/29 04:46:14;;;;;;;10.65;8.75;;;16.00;99.90;;;;;;5091559;28;20375;-82
2021/08/29 04:48:40;;;;;;;11.73;9.55;;;16.10;99.90;;;;;;5091583;28;20387;-78
2021/08/29 04:51:06;;;;;;;11.25;8.98;;;16.00;99.90;;;;;;5091572;28;20368;-80
2021/08/29 04:53:31;;;;;;;9.40;8.50;;;16.10;99.90;;;;;;5091620;28;20403;-80
2021/08/29 04:55:57;;;;;;;9.97;8.97;;;16.10;99.90;;;;;;5091478;28;20441;-80
2021/08/29 04:58:22;;;;;;;9.85;8.80;;;16.20;99.90;;;;;;5091224;28;20398;-77
2021/08/29 05:00:48;;;;;;;10.00;9.10;;;16.20;99.90;;;;;;5091516;28;20422;-80
2021/08/29 05:03:14;;;;;;;10.55;9.38;;;16.20;99.90;;;;;;5091345;28;20368;-77
2021/08/29 05:05:40;;;;;;;13.00;9.98;;;16.30;99.90;;;;;;5091700;28;20407;-79
2021/08/29 05:08:06;;;;;;;11.60;10.40;;;16.20;99.90;;;;;;5091821;28;20408;-80
2021/08/29 05:10:31;;;;;;;12.43;9.95;;;16.20;99.90;;;;;;5091169;28;20375;-79
2021/08/29 05:12:57;;;;;;;10.87;9.77;;;16.20;99.90;;;;;;5091378;28;20388;-78
2021/08/29 05:15:22;;;;;;;10.88;9.75;;;16.30;99.90;;;;;;5091698;28;21012;-78
2021/08/29 05:17:48;;;;;;;12.37;9.97;;;16.30;99.90;;;;;;5091207;28;20368;-79
2021/08/29 05:20:13;;;;;;;10.60;9.50;;;16.30;99.90;;;;;;5090602;28;20429;-78
2021/08/29 05:22:39;;;;;;;11.80;9.70;;;16.30;99.90;;;;;;5091095;28;20372;-80
2021/08/29 05:25:05;;;;;;;10.97;9.47;;;16.40;99.90;;;;;;5090941;28;20364;-79
2021/08/29 05:27:31;;;;;;;10.15;9.00;;;16.40;99.90;;;;;;5090990;28;20361;-80
2021/08/29 05:29:56;;;;;;;9.87;8.87;;;16.50;99.90;;;;;;5090615;28;20388;-79
2021/08/29 05:32:22;;;;;;;11.93;9.20;;;16.50;99.90;;;;;;5090877;28;20885;-78
2021/08/29 05:34:47;;;;;;;10.60;9.50;;;16.50;99.90;;;;;;5091516;28;20750;-81
2021/08/29 05:37:13;;;;;;;11.73;10.10;;;16.50;99.90;;;;;;5091088;28;20707;-80
2021/08/29 05:39:38;;;;;;;11.87;9.70;;;16.50;99.90;;;;;;5091343;28;20408;-78
2021/08/29 05:42:04;;;;;;;9.95;8.93;;;16.50;99.90;;;;;;5091392;28;20726;-79
2021/08/29 05:44:30;;;;;;;9.10;8.20;;;16.50;99.90;;;;;;5072472;28;20383;-81
2021/08/29 05:46:56;;;;;;;9.82;8.82;;;16.60;99.90;;;;;;5072105;28;20376;-81
2021/08/29 05:49:21;;;;;;;9.48;8.30;;;16.70;99.90;;;;;;5072650;28;20874;-82
2021/08/29 05:51:47;;;;;;;8.80;7.90;;;16.80;99.90;;;;;;5090428;28;20365;-79
2021/08/29 05:54:12;;;;;;;8.57;7.78;;;16.80;99.90;;;;;;5090203;28;20376;-81
2021/08/29 05:56:38;;;;;;;8.40;7.60;;;16.80;99.90;;;;;;5090307;28;20369;-81
2021/08/29 05:59:04;;;;;;;7.85;7.13;;;16.80;99.90;;;;;;5090289;28;20392;-79
2021/08/29 06:01:29;;;;;;;8.53;7.40;;;16.80;99.90;;;;;;5091140;28;20905;-81
2021/08/29 06:03:55;;;;;;;7.93;7.18;;;16.90;99.90;;;;;;5091345;28;20459;-80
2021/08/29 06:06:20;;;;;;;8.43;7.63;;;16.90;99.90;;;;;;5090756;28;20468;-82
2021/08/29 06:08:46;;;;;;;7.93;7.05;;;16.80;99.90;;;;;;5090603;28;20451;-79
2021/08/29 06:11:12;;;;;;;7.27;6.60;;;16.80;99.90;;;;;;5091128;28;20376;-79
2021/08/29 06:13:38;;;;;;;8.25;7.38;;;16.80;99.90;;;;;;5072173;28;20385;-82
2021/08/29 06:16:04;;;;;;;7.95;7.25;;;16.90;99.90;;;;;;5090106;28;21127;-82
2021/08/29 06:18:30;;;;;;;8.43;7.63;;;16.80;99.90;;;;;;5089806;28;20399;-79
2021/08/29 06:20:55;;;;;;;8.13;7.30;;;16.90;99.90;;;;;;5090383;28;20380;-81
2021/08/29 06:23:21;;;;;;;9.27;8.27;;;16.90;99.90;;;;;;5090445;28;20376;-81
2021/08/29 06:25:46;;;;;;;10.25;7.63;;;16.90;99.90;;;;;;5089668;28;20787;-83
2021/08/29 06:28:12;;;;;;;7.93;7.20;;;16.90;99.90;;;;;;5089830;28;20365;-79
2021/08/29 06:30:37;;;;;;;8.13;7.32;;;17.00;99.90;;;;;;5089468;28;20396;-79
2021/08/29 06:33:03;;;;;;;8.40;7.60;;;17.00;99.90;;;;;;5089680;28;20439;-81
2021/08/29 06:35:28;;;;;;;9.83;8.20;;;17.10;99.90;;;;;;5089632;28;20422;-82
2021/08/29 06:37:54;;;;;;;8.30;7.50;;;17.10;99.90;;;;;;5071466;28;20373;-81
2021/08/29 06:40:20;;;;;;;8.53;7.73;;;17.20;99.90;;;;;;5089545;28;20539;-79
2021/08/29 06:42:45;;;;;;;8.07;6.70;;;17.10;99.90;;;;;;5071193;28;20458;-81
2021/08/29 06:45:11;;;;;;;7.45;6.75;;;17.10;99.90;;;;;;5071789;28;20373;-81
2021/08/29 06:47:37;;;;;;;7.10;6.40;;;17.20;99.90;;;;;;5089947;28;20377;-79
2021/08/29 06:50:05;;;;;;;7.32;6.63;;;17.20;99.90;;;;;;5089508;28;20392;-79
2021/08/29 06:52:31;;;;;;;7.83;7.03;;;17.10;99.90;;;;;;5089519;28;20419;-81
2021/08/29 06:54:56;;;;;;;8.83;6.80;;;17.10;99.90;;;;;;5070979;28;20892;-79
2021/08/29 06:57:25;;;;;;;6.88;6.18;;;17.10;99.90;;;;;;5088832;28;20407;-79
2021/08/29 06:59:51;;;;;;;6.50;5.80;;;17.10;99.90;;;;;;5089106;28;20908;-80
2021/08/29 07:02:17;;;;;;;7.63;6.50;;;17.00;99.90;;;;;;5089070;28;20785;-77
2021/08/29 07:04:42;;;;;;;6.70;5.90;;;17.00;99.90;;;;;;5089100;28;20373;-79
2021/08/29 07:07:09;;;;;;;7.95;6.68;;;17.00;99.90;;;;;;5089020;28;20459;-77
2021/08/29 07:09:41;;;;;;;6.55;5.95;;;17.00;99.90;;;;;;5070901;28;20414;-79
2021/08/29 07:12:10;;;;;;;6.25;5.65;;;17.00;99.90;;;;;;5089188;28;20373;-79
2021/08/29 07:14:36;;;;;;;7.10;5.85;;;17.00;99.90;;;;;;5089053;28;20948;-80
2021/08/29 07:17:02;;;;;;;6.70;6.00;;;17.10;99.90;;;;;;5088941;28;20425;-80
2021/08/29 07:19:28;;;;;;;8.45;7.65;;;17.10;99.90;;;;;;5089088;28;20404;-81
2021/08/29 07:21:54;;;;;;;6.65;6.00;;;17.00;99.90;;;;;;5088932;28;20453;-79
2021/08/29 07:24:19;;;;;;;8.23;6.07;;;17.00;99.90;;;;;;5089081;28;20388;-79
2021/08/29 07:26:45;;;;;;;6.23;5.63;;;17.00;99.90;;;;;;5089102;28;20868;-79
2021/08/29 07:29:11;;;;;;;7.68;6.70;;;17.00;99.90;;;;;;5088854;28;20479;-80
2021/08/29 07:31:37;;;;;;;7.00;6.30;;;17.00;99.90;;;;;;5088450;28;20364;-79
2021/08/29 07:34:02;;;;;;;6.32;5.72;;;17.00;99.90;;;;;;5068757;28;20506;-77
2021/08/29 07:36:28;;;;;;;7.50;6.80;;;17.00;99.90;;;;;;5089058;28;20451;-80
2021/08/29 07:38:54;;;;;;;7.53;6.57;;;16.90;99.90;;;;;;5077990;28;20393;-79
2021/08/29 07:41:19;;;;;;;8.32;7.30;;;16.90;99.90;;;;;;5068229;28;20378;-81
2021/08/29 07:43:45;;;;;;;9.00;7.00;;;16.90;99.90;;;;;;5068031;28;20378;-79
2021/08/29 07:46:10;;;;;;;6.97;6.28;;;17.00;99.90;;;;;;5068009;28;20401;-80
2021/08/29 07:48:36;;;;;;;7.23;6.37;;;17.00;99.90;;;;;;5066861;28;20397;-78
2021/08/29 07:51:02;;;;;;;7.10;6.40;;;17.10;99.90;;;;;;5068277;28;20878;-79
2021/08/29 07:53:28;;;;;;;8.63;7.72;;;17.10;99.90;;;;;;5068244;28;20382;-78
2021/08/29 07:55:53;;;;;;;6.33;5.83;;;17.10;99.90;;;;;;5068322;28;20382;-79
2021/08/29 07:58:19;;;;;;;5.87;5.37;;;17.20;99.90;;;;;;5077336;28;20419;-80
2021/08/29 08:00:45;;;;;;;6.10;5.50;;;17.30;99.90;;;;;;5088478;28;21017;-81
2021/08/29 08:03:10;;;;;;;6.18;5.40;;;17.30;99.90;;;;;;5088576;28;20387;-80
2021/08/29 08:05:37;;;;;;;7.50;6.72;;;17.40;99.90;;;;;;5088840;28;20373;-81
2021/08/29 08:08:03;;;;;;;7.38;6.75;;;17.50;99.90;;;;;;5088344;28;20376;-81
2021/08/29 08:10:29;;;;;;;6.65;6.05;;;17.50;99.90;;;;;;5091312;28;20373;-81
2021/08/29 08:12:55;;;;;;;6.53;5.63;;;17.50;99.90;;;;;;5088583;28;20380;-80
2021/08/29 08:15:20;;;;;;;5.50;5.10;;;17.50;99.90;;;;;;5089082;28;20459;-78
2021/08/29 08:17:46;;;;;;;5.72;5.22;;;17.60;99.90;;;;;;5071523;28;20797;-79
2021/08/29 08:20:13;;;;;;;5.57;4.63;;;17.70;99.90;;;;;;5089601;28;20953;-79
2021/08/29 08:22:39;;;;;;;5.50;5.00;;;17.60;99.90;;;;;;5069038;28;20450;-79
2021/08/29 08:25:05;;;;;;;5.43;4.80;;;17.60;99.90;;;;;;5088612;28;20384;-77
2021/08/29 08:27:31;;;;;;;5.00;4.35;;;17.60;99.90;;;;;;5090987;28;20417;-80
2021/08/29 08:29:56;;;;;;;4.35;3.95;;;17.60;99.90;;;;;;5091365;28;20376;-79
2021/08/29 08:32:22;;;;;;;5.27;4.77;;;17.50;99.90;;;;;;5073177;28;20445;-78
2021/08/29 08:34:47;;;;;;;4.82;4.40;;;17.50;99.90;;;;;;5091045;28;20472;-80
2021/08/29 08:37:13;;;;;;;4.70;4.30;;;17.50;99.90;;;;;;5091477;28;20420;-81
2021/08/29 08:39:38;;;;;;;3.83;3.53;;;17.50;99.90;;;;;;5090387;28;20401;-80
2021/08/29 08:42:05;;;;;;;5.03;3.92;;;17.50;99.90;;;;;;5091443;28;20704;-79
2021/08/29 08:44:31;;;;;;;4.80;3.97;;;17.50;99.90;;;;;;5091264;28;20380;-81
2021/08/29 08:46:57;;;;;;;4.00;3.70;;;17.50;99.90;;;;;;5090829;28;20379;-78
2021/08/29 08:49:25;;;;;;;3.75;3.45;;;17.60;99.90;;;;;;5090861;28;20515;-78
2021/08/29 08:51:55;;;;;;;3.70;3.40;;;17.70;99.90;;;;;;5090984;28;20889;-80
2021/08/29 08:54:21;;;;;;;3.75;3.40;;;17.70;99.90;;;;;;5073440;28;20738;-79
2021/08/29 08:56:47;;;;;;;3.85;3.55;;;17.60;99.90;;;;;;5089542;28;20391;-78
2021/08/29 08:59:14;;;;;;;3.40;2.75;;;17.60;99.90;;;;;;5073022;28;20410;-81
2021/08/29 09:01:40;;;;;;;3.78;2.60;;;17.60;99.90;;;;;;5090924;28;20423;-80
2021/08/29 09:04:06;;;;;;;3.17;2.88;;;17.70;99.90;;;;;;5091092;28;20387;-81
2021/08/29 09:06:34;;;;;;;3.03;2.83;;;17.80;99.90;;;;;;5090357;28;20384;-81
2021/08/29 09:09:03;;;;;;;2.75;2.55;;;17.90;99.90;;;;;;5072355;28;20388;-81
2021/08/29 09:11:31;;;;;;;2.55;2.35;;;18.00;99.90;;;;;;5090467;28;20387;-81
2021/08/29 09:13:57;;;;;;;2.28;2.08;;;18.10;99.90;;;;;;5071192;28;20387;-81
2021/08/29 09:16:25;;;;;;;2.60;2.40;;;18.20;99.90;;;;;;5072790;28;20724;-77
2021/08/29 09:18:54;;;;;;;2.40;2.20;;;18.20;99.90;;;;;;5091064;28;20396;-82
2021/08/29 09:21:34;;;;;;;3.33;2.50;;;18.30;99.90;;;;;;5090180;28;20383;-79
2021/08/29 09:24:06;;;;;;;2.20;1.95;;;18.40;99.90;;;;;;5093519;28;20384;-78
2021/08/29 09:26:32;;;;;;;2.40;2.20;;;18.50;99.90;;;;;;5094383;28;20385;-77
2021/08/29 09:28:59;;;;;;;3.15;2.45;;;18.60;99.90;;;;;;5077063;28;20396;-78
2021/08/29 09:31:46;;;;;;;2.30;2.10;;;18.70;99.90;;;;;;5096669;28;20384;-81
2021/08/29 09:34:11;;;;;;;2.50;2.30;;;18.80;99.90;;;;;;5094990;28;20388;-81
2021/08/29 09:36:38;;;;;;;2.07;1.90;;;18.90;99.90;;;;;;5071929;28;20980;-79
2021/08/29 09:39:21;;;;;;;2.50;1.90;;;19.00;99.90;;;;;;5090673;28;20489;-80
2021/08/29 09:41:47;;;;;;;3.03;2.50;;;19.20;99.90;;;;;;5092026;28;20475;-81
2021/08/29 09:44:20;;;;;;;2.90;2.60;;;19.30;99.90;;;;;;5088459;28;20779;-79
2021/08/29 09:46:54;;;;;;;1.85;1.75;;;19.40;99.90;;;;;;5083099;28;20425;-81
2021/08/29 09:49:31;;;;;;;2.97;2.78;;;19.50;99.90;;;;;;5069765;28;20378;-78
2021/08/29 09:51:59;;;;;;;0.77;0.77;;;19.50;99.90;;;;;;5085580;28;20391;-81
2021/08/29 09:54:30;;;;;;;2.20;0.88;;;19.60;99.90;;;;;;5055550;28;20886;-81
2021/08/29 09:56:56;;;;;;;1.95;1.00;;;19.60;99.90;;;;;;5090371;28;20373;-83
2021/08/29 09:59:44;;;;;;;0.85;0.73;;;19.70;99.90;;;;;;5089427;28;20407;-79
2021/08/29 10:02:12;;;;;;;1.38;1.27;;;19.80;99.90;;;;;;5090322;28;20388;-80
2021/08/29 10:04:39;;;;;;;1.65;0.60;;;19.90;99.90;;;;;;5072127;28;20463;-79
2021/08/29 10:07:12;;;;;;;1.20;0.70;;;20.30;99.90;;;;;;5071854;28;20512;-81
2021/08/29 10:09:38;;;;;;;0.88;0.57;;;20.70;99.90;;;;;;5071533;28;20444;-83
2021/08/29 10:12:04;;;;;;;1.20;0.90;;;21.10;99.90;;;;;;5072533;28;20460;-83
2021/08/29 10:14:32;;;;;;;0.80;0.70;;;21.40;99.90;;;;;;5089996;28;20428;-84
2021/08/29 10:16:58;;;;;;;1.23;0.47;;;21.70;99.90;;;;;;5071737;28;20856;-82
2021/08/29 10:19:26;;;;;;;1.60;1.40;;;21.90;99.90;;;;;;5089688;28;20450;-80
2021/08/29 10:21:52;;;;;;;1.30;0.70;;;21.70;99.90;;;;;;5090405;28;21161;-83
2021/08/29 10:24:20;;;;;;;0.90;0.70;;;21.70;99.90;;;;;;5089902;28;20384;-80
2021/08/29 10:26:50;;;;;;;0.98;0.57;;;21.70;99.90;;;;;;5089856;28;20372;-80
2021/08/29 10:29:18;;;;;;;0.57;0.50;;;21.50;99.90;;;;;;5090156;28;20412;-83
2021/08/29 10:32:03;;;;;;;0.77;0.60;;;21.50;99.90;;;;;;5071645;28;20381;-80
2021/08/29 10:34:31;;;;;;;1.10;0.50;;;21.60;99.90;;;;;;5071619;28;20865;-80
2021/08/29 10:36:57;;;;;;;0.47;0.43;;;21.30;99.90;;;;;;5090032;28;20368;-79
2021/08/29 10:39:23;;;;;;;0.68;0.40;;;21.20;99.90;;;;;;5090208;28;20429;-80
2021/08/29 10:41:50;;;;;;;0.40;0.40;;;21.40;99.90;;;;;;5089931;28;20376;-81
2021/08/29 10:44:17;;;;;;;0.70;0.43;;;21.80;99.90;;;;;;5089599;28;20749;-82
2021/08/29 10:46:46;;;;;;;0.88;0.40;;;22.10;99.90;;;;;;5071183;28;20400;-82
2021/08/29 10:49:14;;;;;;;0.28;0.28;;;22.50;99.90;;;;;;5089178;28;20380;-80
2021/08/29 10:51:41;;;;;;;0.70;0.28;;;22.80;99.90;;;;;;5071184;28;20391;-81
2021/08/29 10:54:14;;;;;;;0.30;0.30;;;22.90;99.90;;;;;;5090540;28;20379;-82
2021/08/29 10:56:41;;;;;;;0.38;0.38;;;22.80;99.90;;;;;;5089345;28;20430;-80
2021/08/29 10:59:06;;;;;;;1.00;0.35;;;22.80;99.90;;;;;;5088988;28;20912;-85
2021/08/29 11:01:46;;;;;;;1.30;0.30;;;22.90;99.90;;;;;;5071966;28;20368;-80
2021/08/29 11:04:17;;;;;;;3.37;2.87;;;23.00;99.90;;;;;;5090159;28;20403;-80
2021/08/29 11:06:55;;;;;;;0.80;0.80;;;23.10;99.90;;;;;;5072866;28;20380;-82
2021/08/29 11:09:35;;;;;;;2.15;0.93;;;23.10;99.90;;;;;;5090320;28;20862;-79
2021/08/29 11:12:04;;;;;;;0.33;0.33;;;22.90;99.90;;;;;;5089469;28;20372;-80
2021/08/29 11:14:48;;;;;;;0.40;0.40;;;22.70;99.90;;;;;;5088872;28;21046;-79
2021/08/29 11:17:19;;;;;;;0.70;0.40;;;22.40;99.90;;;;;;5063405;28;20414;-80
2021/08/29 11:19:47;;;;;;;0.98;0.45;;;22.40;99.90;;;;;;5067904;28;20399;-79
2021/08/29 11:22:22;;;;;;;0.47;0.38;;;22.70;99.90;;;;;;5089359;28;20391;-81
2021/08/29 11:24:59;;;;;;;0.55;0.40;;;22.60;99.90;;;;;;5086629;28;20384;-79
2021/08/29 11:27:39;;;;;;;0.77;0.50;;;22.80;99.90;;;;;;5066658;28;20766;-82
2021/08/29 11:30:06;;;;;;;0.45;0.45;;;23.00;99.90;;;;;;5066739;28;20833;-80
2021/08/29 11:32:53;;;;;;;0.40;0.30;;;23.00;99.90;;;;;;5086820;28;20372;-83
2021/08/29 11:35:27;;;;;;;1.10;0.50;;;23.10;99.90;;;;;;5087005;28;20758;-82
2021/08/29 11:38:23;;;;;;;0.60;0.50;;;23.20;99.90;;;;;;5077748;28;20910;-79
2021/08/29 11:41:12;;;;;;;1.30;0.40;;;22.90;99.90;;;;;;5069391;28;20770;-78
2021/08/29 11:43:41;;;;;;;0.50;0.50;;;22.80;99.90;;;;;;5089230;28;20491;-80
2021/08/29 11:46:14;;;;;;;0.90;0.47;;;22.70;99.90;;;;;;5089776;28;20389;-80
2021/08/29 11:48:52;;;;;;;0.50;0.50;;;22.70;99.90;;;;;;5073018;28;20387;-80
2021/08/29 11:51:41;;;;;;;0.60;0.40;;;22.40;99.90;;;;;;5082768;28;20377;-78
2021/08/29 11:54:09;;;;;;;0.50;0.50;;;22.20;99.90;;;;;;5090634;28;20472;-85
2021/08/29 11:56:35;;;;;;;0.82;0.50;;;21.90;99.90;;;;;;5090251;28;20407;-82
2021/08/29 11:59:09;;;;;;;0.52;0.40;;;21.60;99.90;;;;;;5431105;22;20439;-82
2021/08/29 12:01:35;;;;;;;0.50;0.40;;;21.50;99.90;;;;;;5086996;28;20376;-79
2021/08/29 12:04:02;;;;;;;1.00;0.40;;;21.30;99.90;;;;;;5072385;28;20385;-81
2021/08/29 12:06:39;;;;;;;0.80;0.50;;;21.30;99.90;;;;;;5091440;28;20372;-78
2021/08/29 12:09:12;;;;;;;1.48;0.40;;;21.30;99.90;;;;;;5090678;28;20402;-80
2021/08/29 12:11:40;;;;;;;0.30;0.30;;;21.30;99.90;;;;;;5070302;28;20393;-80
2021/08/29 12:14:20;;;;;;;0.77;0.43;;;21.50;99.90;;;;;;5053265;28;20386;-79
2021/08/29 12:17:01;;;;;;;1.37;0.60;;;21.60;99.90;;;;;;5054159;28;20469;-79
2021/08/29 12:19:29;;;;;;;1.20;0.50;;;21.50;99.90;;;;;;5067581;28;20399;-80
2021/08/29 12:21:56;;;;;;;0.68;0.40;;;21.40;99.90;;;;;;5089117;28;20372;-79
2021/08/29 12:24:25;;;;;;;1.57;0.40;;;21.60;99.90;;;;;;5071087;28;20463;-82
2021/08/29 12:27:12;;;;;;;1.00;0.40;;;21.70;99.90;;;;;;5071007;28;20746;-82
2021/08/29 12:29:48;;;;;;;1.50;0.40;;;21.70;99.90;;;;;;5089069;28;20873;-81
2021/08/29 12:32:17;;;;;;;0.40;0.40;;;21.60;99.90;;;;;;5071216;28;20398;-82
2021/08/29 12:34:49;;;;;;;0.50;0.50;;;21.30;99.90;;;;;;5089723;28;20407;-79
2021/08/29 12:37:15;;;;;;;0.85;0.43;;;21.30;99.90;;;;;;5089704;28;20365;-80
2021/08/29 12:39:53;;;;;;;2.20;0.60;;;21.50;99.90;;;;;;5088583;28;20400;-82
2021/08/29 12:42:22;;;;;;;1.60;0.60;;;21.80;99.90;;;;;;5070490;28;20429;-82
2021/08/29 12:44:49;;;;;;;0.40;0.40;;;22.10;99.90;;;;;;5070301;28;20483;-83
2021/08/29 12:47:16;;;;;;;0.82;0.60;;;22.20;99.90;;;;;;5070672;28;20396;-81